Time;durP1;ratioP1;P1;durP2;ratioP2;P2;SDS_P1;SDS_P2;PMS_P1;PMS_P2;Temp;Humidity;BMP_temperature;BMP_pressure;BME280_temperature;BME280_humidity;BME280_pressure;Samples;Min_cycle;Max_cycle;Signal;HPM_P1;HPM_P2
2022/03/23 00:04:33;;;;;;;28.85;16.17;;;;;;;7.73;87.39;103130.88;10108362;28;20050;-66
2022/03/23 00:09:30;;;;;;;26.10;16.23;;;;;;;7.64;87.16;103132.31;10098639;28;20049;-67
2022/03/23 00:14:46;;;;;;;29.20;15.93;;;;;;;7.47;91.03;103131.38;10110794;28;20548;-66
2022/03/23 00:19:44;;;;;;;29.08;18.63;;;;;;;7.47;90.33;103125.91;10107622;28;20074;-67
2022/03/23 00:24:40;;;;;;;29.95;18.17;;;;;;;7.36;91.48;103135.78;10109420;28;20134;-66
2022/03/23 00:29:37;;;;;;;28.55;18.35;;;;;;;7.31;92.79;103131.03;10107356;28;20158;-66
2022/03/23 00:34:33;;;;;;;30.35;18.25;;;;;;;7.27;92.70;103123.59;10106324;28;20524;-67
2022/03/23 00:39:30;;;;;;;32.78;19.10;;;;;;;7.18;94.88;103123.09;10107019;28;20058;-67
2022/03/23 00:44:26;;;;;;;30.02;18.83;;;;;;;7.05;96.39;103124.13;10141377;28;20475;-66
2022/03/23 00:49:23;;;;;;;33.42;19.65;;;;;;;6.93;97.90;103126.84;10111248;28;20050;-66
2022/03/23 00:54:20;;;;;;;27.60;17.75;;;;;;;6.89;98.00;103112.09;10108144;28;20654;-67
2022/03/23 00:59:18;;;;;;;33.33;19.02;;;;;;;6.88;99.73;103117.75;10108171;28;20504;-67
2022/03/23 01:04:14;;;;;;;28.17;17.58;;;;;;;6.76;100.00;103114.19;10107602;28;20149;-67
2022/03/23 01:09:12;;;;;;;33.63;19.75;;;;;;;6.70;100.00;103110.50;10105250;28;20102;-66
2022/03/23 01:14:08;;;;;;;29.90;19.13;;;;;;;6.69;100.00;103108.84;10107077;28;20531;-66
2022/03/23 01:19:04;;;;;;;30.08;19.48;;;;;;;6.59;100.00;103112.13;10108238;28;20137;-66
2022/03/23 01:24:02;;;;;;;27.10;18.45;;;;;;;6.55;100.00;103112.84;10107023;28;20134;-66
2022/03/23 01:28:58;;;;;;;29.23;17.95;;;;;;;6.43;100.00;103110.91;10109850;28;20137;-66
2022/03/23 01:33:59;;;;;;;32.22;18.80;;;;;;;6.36;100.00;103109.31;10105529;28;20552;-67
2022/03/23 01:38:57;;;;;;;33.60;20.27;;;;;;;6.27;100.00;103112.38;10106020;28;20043;-67
2022/03/23 01:43:53;;;;;;;32.15;21.30;;;;;;;6.23;100.00;103115.78;10105278;28;20043;-66
2022/03/23 01:48:50;;;;;;;32.25;20.70;;;;;;;6.19;100.00;103106.44;10106054;28;20081;-66
2022/03/23 01:53:46;;;;;;;36.70;24.20;;;;;;;6.17;100.00;103103.09;10106493;28;20090;-67
2022/03/23 01:58:43;;;;;;;33.60;21.48;;;;;;;6.03;100.00;103095.13;10107425;28;20121;-66
2022/03/23 02:03:40;;;;;;;28.42;18.85;;;;;;;5.96;100.00;103099.81;10090443;28;20074;-67
2022/03/23 02:08:37;;;;;;;33.28;21.73;;;;;;;5.96;100.00;103091.66;10118234;28;20069;-66
2022/03/23 02:13:33;;;;;;;33.72;20.63;;;;;;;6.05;100.00;103086.75;10153473;28;20038;-67
2022/03/23 02:18:29;;;;;;;40.42;22.02;;;;;;;6.03;100.00;103080.72;10113264;28;20082;-67
2022/03/23 02:23:27;;;;;;;36.03;21.42;;;;;;;5.89;100.00;103093.63;10114461;28;20051;-67
2022/03/23 02:28:23;;;;;;;38.10;22.80;;;;;;;5.76;100.00;103089.19;10106905;28;20101;-66
2022/03/23 02:33:21;;;;;;;39.40;22.40;;;;;;;5.73;100.00;103084.19;10109223;28;20079;-67
2022/03/23 02:38:18;;;;;;;33.75;21.98;;;;;;;5.65;100.00;103082.63;10168822;28;20081;-67
2022/03/23 02:43:15;;;;;;;36.25;21.75;;;;;;;5.56;100.00;103083.97;10176207;28;20054;-67
2022/03/23 02:48:12;;;;;;;35.67;22.13;;;;;;;5.54;100.00;103080.66;10136485;28;20615;-66
2022/03/23 03:03:43;;;;;;;32.78;22.20;;;;;;;5.38;100.00;103086.69;10111263;28;20105;-67
2022/03/23 03:08:47;;;;;;;32.58;20.70;;;;;;;5.28;100.00;103088.03;10166136;28;20132;-66
2022/03/23 03:13:45;;;;;;;33.17;21.42;;;;;;;5.27;100.00;103080.13;10106726;28;20631;-66
2022/03/23 03:18:42;;;;;;;34.30;21.73;;;;;;;5.19;100.00;103093.97;10121428;28;20101;-66
2022/03/23 03:23:44;;;;;;;35.03;22.27;;;;;;;5.26;100.00;103090.13;10091474;28;20129;-67
2022/03/23 03:28:42;;;;;;;37.67;23.00;;;;;;;5.10;100.00;103095.31;10159898;28;20057;-67
2022/03/23 03:33:39;;;;;;;39.17;22.83;;;;;;;5.07;100.00;103102.00;10158378;28;20137;-67
2022/03/23 03:38:37;;;;;;;30.55;20.98;;;;;;;5.04;100.00;103097.03;10109555;28;20133;-68
2022/03/23 03:43:34;;;;;;;34.70;21.48;;;;;;;5.00;100.00;103103.94;10111028;28;20047;-67
2022/03/23 03:48:30;;;;;;;35.80;20.75;;;;;;;4.99;100.00;103105.00;10169327;28;20057;-67
2022/03/23 03:53:27;;;;;;;34.95;22.70;;;;;;;4.97;100.00;103098.97;10163904;28;20038;-66
2022/03/23 03:58:35;;;;;;;34.53;21.30;;;;;;;4.87;100.00;103104.06;10130322;28;20101;-67
2022/03/23 04:03:32;;;;;;;38.05;22.95;;;;;;;4.83;100.00;103096.38;10087166;28;20545;-67
2022/03/23 04:08:28;;;;;;;36.00;22.63;;;;;;;4.82;100.00;103100.13;10165319;28;20404;-67
2022/03/23 04:13:25;;;;;;;34.92;22.33;;;;;;;4.74;100.00;103103.13;10125375;28;20722;-67
2022/03/23 04:18:22;;;;;;;33.80;22.63;;;;;;;4.73;100.00;103115.00;10140773;28;20050;-67
2022/03/23 04:23:19;;;;;;;36.72;22.95;;;;;;;4.60;100.00;103096.13;10099395;28;20065;-66
2022/03/23 04:28:15;;;;;;;36.67;24.17;;;;;;;4.60;100.00;103104.25;10126709;28;20535;-67
2022/03/23 04:33:12;;;;;;;35.80;23.80;;;;;;;4.47;100.00;103107.06;10096240;28;20515;-67
2022/03/23 04:38:08;;;;;;;41.63;24.85;;;;;;;4.42;100.00;103108.53;10119161;28;20097;-67
2022/03/23 04:43:05;;;;;;;36.92;24.08;;;;;;;4.38;100.00;103112.72;10093821;28;20580;-67
2022/03/23 04:48:02;;;;;;;36.53;23.63;;;;;;;4.40;100.00;103105.22;10108930;28;20125;-67
2022/03/23 04:52:58;;;;;;;36.55;22.88;;;;;;;4.29;100.00;103108.59;10157009;28;20565;-67
2022/03/23 04:57:55;;;;;;;37.00;24.38;;;;;;;4.28;100.00;103115.06;10179232;28;20084;-67
2022/03/23 05:02:51;;;;;;;46.00;25.15;;;;;;;4.20;100.00;103107.19;10109862;28;20127;-67
2022/03/23 05:07:48;;;;;;;41.80;24.85;;;;;;;4.21;100.00;103114.28;10150994;28;20100;-67
2022/03/23 05:12:46;;;;;;;39.70;24.38;;;;;;;4.21;100.00;103114.28;10152119;28;20138;-66
2022/03/23 05:17:44;;;;;;;40.95;24.80;;;;;;;4.20;100.00;103112.59;10133637;28;20060;-67
2022/03/23 05:22:42;;;;;;;38.33;23.67;;;;;;;4.21;100.00;103117.00;10116408;28;20039;-67
2022/03/23 05:27:40;;;;;;;38.58;24.52;;;;;;;4.24;100.00;103119.25;10097422;28;20054;-67
2022/03/23 05:32:39;;;;;;;39.20;23.95;;;;;;;4.27;100.00;103120.69;10111388;28;20046;-67
2022/03/23 05:37:36;;;;;;;39.30;24.13;;;;;;;4.23;100.00;103123.03;10139867;28;20145;-67
2022/03/23 05:42:37;;;;;;;39.42;23.90;;;;;;;4.25;100.00;103120.94;10134799;28;20054;-67
2022/03/23 05:47:34;;;;;;;42.03;25.67;;;;;;;4.25;100.00;103122.78;10121235;28;20500;-67
2022/03/23 05:52:30;;;;;;;38.72;24.77;;;;;;;4.27;100.00;103118.84;10123540;28;20456;-67
2022/03/23 05:57:28;;;;;;;39.78;23.42;;;;;;;4.29;100.00;103129.44;10144910;28;20504;-67
2022/03/23 06:02:25;;;;;;;38.15;23.83;;;;;;;4.31;100.00;103130.88;10144289;28;20565;-67
2022/03/23 06:07:22;;;;;;;37.95;23.80;;;;;;;4.35;100.00;103126.69;10134506;28;20046;-67
2022/03/23 06:12:19;;;;;;;42.33;24.00;;;;;;;4.39;100.00;103138.78;10163329;28;20556;-67
2022/03/23 06:17:15;;;;;;;42.75;25.10;;;;;;;4.48;100.00;103135.78;10121378;28;20085;-67
2022/03/23 06:22:12;;;;;;;39.35;25.27;;;;;;;4.54;100.00;103141.19;10153977;28;20182;-67
2022/03/23 06:27:12;;;;;;;39.28;24.73;;;;;;;4.62;100.00;103142.81;10151297;28;20059;-67
2022/03/23 06:32:09;;;;;;;39.92;24.83;;;;;;;4.68;100.00;103150.06;10122475;28;20074;-67
2022/03/23 06:37:06;;;;;;;40.72;25.38;;;;;;;4.72;100.00;103147.75;10142055;28;20054;-66
2022/03/23 06:42:02;;;;;;;37.78;24.85;;;;;;;4.84;100.00;103157.66;10101032;28;20139;-67
2022/03/23 06:46:59;;;;;;;39.28;24.50;;;;;;;4.93;100.00;103160.13;10138404;28;20042;-66
2022/03/23 06:51:55;;;;;;;35.53;23.90;;;;;;;5.04;100.00;103154.81;10116491;28;20146;-67
2022/03/23 06:56:52;;;;;;;38.17;24.83;;;;;;;5.16;100.00;103164.94;10125060;28;20078;-66
2022/03/23 07:01:49;;;;;;;37.28;23.33;;;;;;;5.26;100.00;103166.09;10107358;28;20079;-67
2022/03/23 07:06:45;;;;;;;35.08;23.30;;;;;;;5.38;100.00;103162.66;10130975;28;20503;-67
2022/03/23 07:11:42;;;;;;;38.65;24.17;;;;;;;5.51;100.00;103161.72;10143297;28;20090;-67
2022/03/23 07:16:38;;;;;;;36.97;24.17;;;;;;;5.67;100.00;103161.94;10129761;28;20129;-67
2022/03/23 07:21:35;;;;;;;34.92;22.73;;;;;;;5.87;100.00;103158.16;10141906;28;20046;-67
2022/03/23 07:26:31;;;;;;;35.20;23.70;;;;;;;6.00;100.00;103170.81;10113649;28;20054;-66
2022/03/23 07:31:28;;;;;;;36.03;23.88;;;;;;;6.22;100.00;103179.31;10138929;28;20045;-67
2022/03/23 07:36:25;;;;;;;34.50;22.00;;;;;;;6.35;100.00;103176.44;10162228;28;20074;-67
2022/03/23 07:41:22;;;;;;;36.70;22.33;;;;;;;6.56;100.00;103182.44;10132113;28;20035;-67
2022/03/23 07:46:18;;;;;;;35.90;22.73;;;;;;;6.78;100.00;103178.16;10166578;28;20077;-67
2022/03/23 07:51:15;;;;;;;32.45;21.70;;;;;;;7.02;100.00;103180.91;10144163;28;20196;-66
2022/03/23 07:56:11;;;;;;;35.80;22.83;;;;;;;7.22;100.00;103173.28;10118035;28;20136;-66
2022/03/23 08:01:08;;;;;;;31.33;20.40;;;;;;;7.44;97.51;103180.84;10144207;28;20050;-67
2022/03/23 08:06:05;;;;;;;32.35;19.60;;;;;;;7.63;91.25;103174.22;10114688;28;20050;-67
2022/03/23 08:11:01;;;;;;;32.75;19.27;;;;;;;7.92;79.66;103177.03;10153189;28;20069;-67
2022/03/23 08:15:58;;;;;;;29.08;19.25;;;;;;;8.22;77.55;103172.22;10123592;28;20460;-67
2022/03/23 08:20:54;;;;;;;34.45;17.33;;;;;;;8.62;66.32;103176.81;10113518;28;20085;-67
2022/03/23 08:25:51;;;;;;;27.77;17.33;;;;;;;8.80;61.82;103174.97;10122326;28;20038;-67
2022/03/23 08:30:47;;;;;;;25.92;16.75;;;;;;;8.93;59.83;103177.34;10146406;28;20066;-67
2022/03/23 08:35:44;;;;;;;26.50;17.42;;;;;;;9.25;56.72;103174.06;10121603;28;20125;-67
2022/03/23 08:40:40;;;;;;;27.30;17.92;;;;;;;9.61;57.46;103177.38;10146638;28;20066;-67
2022/03/23 08:45:36;;;;;;;24.85;16.20;;;;;;;9.74;52.27;103174.25;10119913;28;20041;-67
2022/03/23 08:50:34;;;;;;;26.50;16.35;;;;;;;10.02;51.09;103175.97;10147262;28;20545;-66
2022/03/23 08:55:31;;;;;;;19.75;14.02;;;;;;;10.27;48.82;103178.22;10118707;28;20519;-67
2022/03/23 09:00:27;;;;;;;18.15;13.60;;;;;;;10.79;44.52;103181.50;10133335;28;20113;-67
2022/03/23 09:05:24;;;;;;;19.58;12.73;;;;;;;11.01;44.70;103182.28;10117174;28;20046;-66
2022/03/23 09:10:21;;;;;;;16.90;12.15;;;;;;;11.24;42.82;103180.28;10150750;28;20054;-67
2022/03/23 09:15:18;;;;;;;22.00;12.85;;;;;;;11.48;43.55;103177.97;10112368;28;20094;-67
2022/03/23 09:20:14;;;;;;;21.25;14.05;;;;;;;11.81;42.58;103182.28;10147366;28;20050;-66
2022/03/23 09:25:14;;;;;;;19.27;14.10;;;;;;;11.93;43.40;103180.19;10109604;28;20050;-67
2022/03/23 09:30:13;;;;;;;18.40;14.05;;;;;;;12.09;41.72;103177.50;10113737;28;20050;-66
2022/03/23 09:35:10;;;;;;;21.58;14.75;;;;;;;12.32;41.78;103177.06;10177303;28;20054;-67
2022/03/23 09:40:09;;;;;;;20.60;14.00;;;;;;;12.40;42.09;103170.22;10151411;28;20054;-67
2022/03/23 09:45:06;;;;;;;22.17;14.15;;;;;;;12.63;42.63;103166.97;10111422;28;20043;-67
2022/03/23 09:50:02;;;;;;;18.55;13.85;;;;;;;12.79;39.57;103170.56;10147593;28;20055;-67
2022/03/23 09:54:59;;;;;;;20.00;13.38;;;;;;;13.09;41.86;103163.44;10086521;28;20050;-67
2022/03/23 09:59:55;;;;;;;21.45;14.98;;;;;;;13.37;42.32;103164.81;10152884;28;20046;-67
2022/03/23 10:05:24;;;;;;;19.10;13.73;;;;;;;13.46;40.71;103167.81;10148181;28;20050;-67
2022/03/23 10:10:29;;;;;;;15.90;11.60;;;;;;;13.64;39.92;103158.97;10169533;28;20058;-68
2022/03/23 10:16:03;;;;;;;13.50;9.52;;;;;;;13.80;44.40;103156.16;10148634;28;20133;-67
2022/03/23 10:21:00;;;;;;;18.23;11.95;;;;;;;14.04;44.61;103151.69;10110215;28;20723;-67
2022/03/23 10:25:57;;;;;;;21.38;13.10;;;;;;;14.45;45.19;103156.94;10142170;28;20081;-67
2022/03/23 10:30:54;;;;;;;25.98;14.32;;;;;;;14.85;43.62;103151.47;10155758;28;20053;-67
2022/03/23 10:35:51;;;;;;;29.48;15.23;;;;;;;15.28;39.21;103152.47;10154777;28;20519;-66
2022/03/23 10:40:51;;;;;;;20.40;13.07;;;;;;;15.72;39.92;103140.44;10157008;28;20039;-67
2022/03/23 10:45:48;;;;;;;20.33;13.75;;;;;;;16.00;36.92;103143.41;10154697;28;20073;-67
2022/03/23 10:50:56;;;;;;;21.90;13.88;;;;;;;16.26;37.74;103138.38;10155791;28;20046;-66
2022/03/23 10:55:52;;;;;;;20.55;14.27;;;;;;;16.36;35.89;103132.72;10154323;28;20157;-66
2022/03/23 11:00:52;;;;;;;21.15;13.15;;;;;;;16.65;38.95;103128.13;10155632;28;20415;-67
2022/03/23 11:05:49;;;;;;;25.00;13.20;;;;;;;17.28;39.58;103127.63;10154892;28;20516;-67
2022/03/23 11:16:45;;;;;;;20.23;14.57;;;;;;;18.27;36.30;103123.38;10128813;28;20046;-67
2022/03/23 11:22:04;;;;;;;20.25;14.30;;;;;;;18.42;36.74;103113.88;10154623;28;20763;-67
2022/03/23 11:27:00;;;;;;;20.92;12.23;;;;;;;18.65;37.76;103116.66;10153503;28;20163;-67
2022/03/23 11:32:00;;;;;;;20.73;14.00;;;;;;;18.92;37.72;103111.00;10154364;28;20489;-67
2022/03/23 11:36:58;;;;;;;23.45;15.98;;;;;;;19.17;35.31;103121.72;10153302;28;20524;-67
2022/03/23 11:41:58;;;;;;;24.63;15.05;;;;;;;19.46;37.11;103108.16;10118847;28;20047;-67
2022/03/23 11:47:02;;;;;;;23.15;14.50;;;;;;;19.81;36.99;103105.53;10146513;28;20177;-67
2022/03/23 11:52:07;;;;;;;26.05;16.20;;;;;;;19.93;35.28;103100.13;10114556;28;20058;-67
2022/03/23 11:57:04;;;;;;;22.85;16.17;;;;;;;20.52;34.93;103088.56;10144269;28;20145;-67
2022/03/23 12:02:00;;;;;;;22.80;16.02;;;;;;;20.96;34.32;103085.75;10153655;28;20046;-67
2022/03/23 12:07:08;;;;;;;26.00;14.98;;;;;;;21.46;33.52;103082.28;10160537;28;20061;-67
2022/03/23 12:12:28;;;;;;;22.88;14.18;;;;;;;22.15;34.54;103080.19;10192941;28;20455;-67
2022/03/23 12:17:28;;;;;;;23.52;15.68;;;;;;;22.73;30.65;103067.19;10147163;28;20112;-67
2022/03/23 12:22:33;;;;;;;22.17;15.00;;;;;;;23.28;32.10;103067.88;10152408;28;20606;-66
2022/03/23 12:27:46;;;;;;;22.90;14.48;;;;;;;23.92;29.71;103055.13;10151222;28;20057;-66
2022/03/23 12:32:43;;;;;;;24.00;14.20;;;;;;;23.83;26.04;103057.25;10152212;28;20497;-66
2022/03/23 12:37:42;;;;;;;24.27;15.98;;;;;;;23.96;25.35;103050.47;10150906;28;20049;-66
2022/03/23 12:42:44;;;;;;;26.70;16.02;;;;;;;24.60;24.78;103050.69;10151611;28;20038;-65
2022/03/23 12:47:55;;;;;;;21.33;13.85;;;;;;;24.62;25.05;103039.94;10149807;28;20038;-65
2022/03/23 12:58:18;;;;;;;22.92;16.23;;;;;;;25.55;26.83;103033.84;10129459;28;20082;-66
2022/03/23 13:03:14;;;;;;;22.73;16.65;;;;;;;25.63;25.10;103030.06;10113269;28;20043;-66
2022/03/23 13:08:47;;;;;;;21.27;14.25;;;;;;;25.93;26.38;103023.91;10158768;28;20133;-66
2022/03/23 13:13:46;;;;;;;22.53;15.70;;;;;;;26.60;24.71;103016.03;10144852;28;20738;-66
2022/03/23 13:18:44;;;;;;;22.90;15.13;;;;;;;27.00;25.61;103019.50;10149063;28;20101;-66
2022/03/23 13:23:43;;;;;;;21.15;15.32;;;;;;;27.10;26.53;103018.06;10149885;28;20074;-66
2022/03/23 13:28:47;;;;;;;24.05;14.55;;;;;;;27.18;24.96;103022.59;10130027;28;20124;-66
2022/03/23 13:33:46;;;;;;;22.02;15.80;;;;;;;27.29;24.36;103012.34;10116057;28;20519;-66
2022/03/23 13:38:49;;;;;;;19.67;14.77;;;;;;;27.79;25.37;103007.44;10147256;28;20077;-66
2022/03/23 13:43:47;;;;;;;23.00;16.10;;;;;;;27.05;21.50;103008.75;10149622;28;20038;-66
2022/03/23 13:48:43;;;;;;;22.13;15.55;;;;;;;27.28;22.34;103007.94;10146100;28;20073;-66
2022/03/23 13:53:40;;;;;;;19.65;14.43;;;;;;;26.81;22.21;103003.56;10149511;28;20073;-66
2022/03/23 13:58:36;;;;;;;24.38;16.55;;;;;;;26.83;22.65;102995.59;10148348;28;20884;-66
2022/03/23 14:03:35;;;;;;;24.58;15.65;;;;;;;26.97;25.43;102995.81;10153855;28;21137;-66
2022/03/23 14:08:39;;;;;;;23.27;14.52;;;;;;;27.00;25.10;102997.84;10179056;28;20107;-66
2022/03/23 14:13:38;;;;;;;21.75;14.98;;;;;;;26.80;24.11;102996.31;10189520;28;20575;-66
2022/03/23 14:18:35;;;;;;;21.52;15.55;;;;;;;26.74;27.03;102981.00;10155987;28;20061;-66
2022/03/23 14:23:32;;;;;;;27.10;17.10;;;;;;;26.42;25.39;102984.00;10154055;28;20074;-66
2022/03/23 14:28:28;;;;;;;21.02;15.35;;;;;;;26.74;27.26;102975.38;10155827;28;20747;-66
2022/03/23 14:33:26;;;;;;;23.42;15.63;;;;;;;26.80;27.82;102968.25;10153210;28;20075;-65
2022/03/23 14:38:26;;;;;;;24.38;17.83;;;;;;;26.83;29.28;102967.53;10154796;28;20050;-66
2022/03/23 14:43:31;;;;;;;22.77;15.77;;;;;;;26.68;30.19;102955.22;10127105;28;20042;-66
2022/03/23 14:48:35;;;;;;;23.88;16.63;;;;;;;26.49;27.56;102958.09;10146905;28;20089;-66
2022/03/23 14:53:33;;;;;;;25.60;16.25;;;;;;;26.26;25.79;102955.28;10120205;28;20134;-66
2022/03/23 14:58:31;;;;;;;24.83;16.05;;;;;;;26.02;26.44;102951.63;10154136;28;20093;-66
2022/03/23 15:03:30;;;;;;;24.67;17.35;;;;;;;25.93;26.08;102953.84;10155399;28;20434;-65
2022/03/23 15:13:42;;;;;;;22.20;15.27;;;;;;;25.46;32.63;102958.47;10154016;28;20073;-66
2022/03/23 15:18:40;;;;;;;30.25;17.35;;;;;;;24.72;31.81;102952.72;10153281;28;20500;-66
2022/03/23 15:23:37;;;;;;;26.15;17.23;;;;;;;23.96;29.29;102952.69;10154237;28;20054;-65
2022/03/23 15:28:33;;;;;;;25.25;17.10;;;;;;;23.61;27.92;102956.03;10153105;28;20054;-66
2022/03/23 15:33:30;;;;;;;25.65;16.83;;;;;;;23.47;28.19;102950.84;10154188;28;20130;-66
2022/03/23 15:38:31;;;;;;;30.08;17.48;;;;;;;23.06;29.37;102957.53;10153125;28;20507;-66
2022/03/23 15:43:28;;;;;;;26.70;17.25;;;;;;;23.22;27.66;102947.28;10153771;28;20535;-66
2022/03/23 15:48:28;;;;;;;29.98;17.45;;;;;;;23.50;27.83;102954.91;10152194;28;20080;-66
2022/03/23 15:53:34;;;;;;;28.52;17.88;;;;;;;23.49;28.18;102947.72;10118031;28;20061;-66
2022/03/23 15:58:31;;;;;;;29.58;16.52;;;;;;;23.68;29.42;102939.50;10152008;28;20142;-66
2022/03/23 16:03:29;;;;;;;25.73;18.17;;;;;;;23.43;28.70;102954.69;10153552;28;20096;-66
2022/03/23 16:08:26;;;;;;;28.85;20.33;;;;;;;23.48;29.87;102946.06;10168576;28;20467;-65
2022/03/23 16:13:23;;;;;;;31.60;19.63;;;;;;;23.51;29.92;102945.38;10153116;28;20444;-65
2022/03/23 16:18:20;;;;;;;27.83;18.85;;;;;;;23.31;29.10;102947.16;10150590;28;20046;-65
2022/03/23 16:23:17;;;;;;;28.90;20.35;;;;;;;22.99;30.10;102951.72;10152312;28;20141;-65
2022/03/23 16:28:20;;;;;;;31.58;19.83;;;;;;;22.53;30.32;102951.78;10150396;28;20057;-66
2022/03/23 16:33:17;;;;;;;34.80;20.20;;;;;;;21.87;31.42;102952.63;10135200;28;20157;-66
2022/03/23 16:38:18;;;;;;;35.60;22.75;;;;;;;21.00;34.36;102947.63;10150451;28;20459;-66
2022/03/23 16:43:15;;;;;;;30.00;19.00;;;;;;;21.08;39.15;102948.75;10152112;28;20069;-66
2022/03/23 16:48:12;;;;;;;34.88;19.70;;;;;;;20.79;34.17;102953.13;10150174;28;20086;-66
2022/03/23 16:53:08;;;;;;;33.05;19.90;;;;;;;20.55;33.74;102962.03;10150418;28;20066;-66
2022/03/23 16:58:05;;;;;;;33.25;19.85;;;;;;;20.13;34.08;102961.81;10142765;28;20061;-66
2022/03/23 17:13:32;;;;;;;37.00;23.55;;;;;;;18.89;36.13;102961.13;10158265;28;20042;-65
2022/03/23 17:18:28;;;;;;;35.35;21.92;;;;;;;18.61;36.88;102975.19;10149510;28;20078;-65
2022/03/23 17:23:25;;;;;;;32.78;20.33;;;;;;;18.29;44.20;102974.34;10150092;28;20145;-65
2022/03/23 17:28:21;;;;;;;35.63;20.90;;;;;;;18.05;40.02;102976.59;10149353;28;20097;-65
2022/03/23 17:33:20;;;;;;;38.10;21.95;;;;;;;17.79;38.46;102970.84;10149775;28;20050;-66
2022/03/23 17:38:16;;;;;;;37.15;21.95;;;;;;;17.45;39.70;102974.91;10148136;28;20138;-65
2022/03/23 17:43:16;;;;;;;37.10;23.05;;;;;;;17.26;40.19;102980.56;10133047;28;20046;-66
2022/03/23 17:48:12;;;;;;;34.92;22.50;;;;;;;17.01;40.33;102977.22;10147996;28;20058;-66
2022/03/23 17:53:09;;;;;;;40.47;22.90;;;;;;;16.86;40.77;102979.44;10149909;28;20080;-65
2022/03/23 17:58:05;;;;;;;37.95;24.85;;;;;;;16.60;41.03;102988.19;10148100;28;20050;-66
2022/03/23 18:03:01;;;;;;;34.03;23.30;;;;;;;16.42;42.05;102987.09;10150167;28;20133;-66
2022/03/23 18:07:58;;;;;;;37.25;23.80;;;;;;;16.26;43.00;102994.00;10158332;28;20058;-66
2022/03/23 18:12:54;;;;;;;44.70;25.00;;;;;;;16.03;43.92;102990.22;10186666;28;20050;-66
2022/03/23 18:17:51;;;;;;;36.05;24.45;;;;;;;15.83;46.43;102999.63;10146880;28;20092;-65
2022/03/23 18:22:49;;;;;;;43.67;25.70;;;;;;;15.57;46.64;102999.97;10141944;28;20105;-66
2022/03/23 18:27:45;;;;;;;43.10;25.20;;;;;;;15.36;47.24;103000.25;10146746;28;20050;-66
2022/03/23 18:32:43;;;;;;;40.85;23.92;;;;;;;15.31;47.97;102996.72;10119477;28;20085;-66
2022/03/23 18:37:41;;;;;;;42.67;27.92;;;;;;;15.13;49.07;103006.56;10144720;28;20547;-65
2022/03/23 18:42:39;;;;;;;45.28;27.08;;;;;;;14.98;49.11;103015.00;10149125;28;20086;-66
2022/03/23 18:47:36;;;;;;;37.75;25.38;;;;;;;14.83;50.20;103018.72;10142478;28;20054;-65
2022/03/23 18:52:33;;;;;;;41.17;25.05;;;;;;;14.62;51.25;103018.09;10154790;28;20500;-66
2022/03/23 18:57:30;;;;;;;42.20;26.38;;;;;;;14.55;53.14;103009.38;10154091;28;20137;-66
2022/03/23 19:02:26;;;;;;;44.85;25.90;;;;;;;14.44;54.65;103023.19;10150964;28;20074;-67
2022/03/23 19:07:24;;;;;;;50.17;27.30;;;;;;;14.29;54.86;103020.56;10162219;28;20057;-68
2022/03/23 19:12:20;;;;;;;49.28;27.55;;;;;;;14.03;58.28;103018.00;10189718;28;20061;-67
2022/03/23 19:17:17;;;;;;;43.47;27.65;;;;;;;13.93;60.48;103018.06;10154061;28;20088;-67
2022/03/23 19:22:16;;;;;;;45.90;27.05;;;;;;;13.69;61.79;103023.41;10154449;28;20211;-67
2022/03/23 19:27:13;;;;;;;49.63;28.75;;;;;;;13.50;64.66;103025.97;10148911;28;20555;-67
2022/03/23 19:32:09;;;;;;;47.63;29.67;;;;;;;13.37;64.67;103023.84;10154073;28;20054;-68
2022/03/23 19:37:06;;;;;;;43.67;26.83;;;;;;;13.38;64.64;103022.75;10152908;28;20052;-67
2022/03/23 19:42:04;;;;;;;41.90;26.83;;;;;;;13.17;68.22;103033.75;10122904;28;20625;-67
2022/03/23 19:47:02;;;;;;;44.92;27.75;;;;;;;13.09;70.28;103031.59;10150052;28;20483;-67
2022/03/23 19:51:58;;;;;;;53.17;29.98;;;;;;;12.94;70.26;103028.88;10117638;28;20051;-67
2022/03/23 19:56:56;;;;;;;49.75;27.98;;;;;;;12.86;70.82;103027.53;10143078;28;20080;-67
2022/03/23 20:01:52;;;;;;;44.20;27.42;;;;;;;12.73;73.38;103028.91;10153392;28;20050;-66
2022/03/23 20:06:49;;;;;;;45.80;28.10;;;;;;;12.63;74.48;103039.91;10154648;28;20050;-66
2022/03/23 20:11:45;;;;;;;48.17;28.13;;;;;;;12.50;75.56;103041.25;10153383;28;20093;-67
2022/03/23 20:16:42;;;;;;;46.67;28.40;;;;;;;12.41;77.39;103038.22;10150656;28;20054;-67
2022/03/23 20:21:39;;;;;;;43.20;27.13;;;;;;;12.33;79.88;103036.03;10153027;28;20057;-67
2022/03/23 20:26:35;;;;;;;44.30;28.90;;;;;;;12.21;78.98;103039.06;10150368;28;20078;-67
2022/03/23 20:31:32;;;;;;;44.85;29.48;;;;;;;12.08;83.81;103038.75;10151757;28;20086;-67
2022/03/23 20:36:31;;;;;;;49.15;28.98;;;;;;;11.98;81.77;103040.38;10150629;28;20564;-67
2022/03/23 20:41:28;;;;;;;49.28;29.20;;;;;;;11.85;81.45;103032.63;10151777;28;20078;-67
2022/03/23 20:46:26;;;;;;;47.13;30.52;;;;;;;11.73;83.32;103037.53;10149902;28;20050;-67
2022/03/23 20:51:23;;;;;;;50.65;29.48;;;;;;;11.64;83.31;103033.66;10131778;28;20513;-67
2022/03/23 20:56:21;;;;;;;45.50;28.50;;;;;;;11.57;83.90;103032.00;10136821;28;20174;-67
2022/03/23 21:01:21;;;;;;;46.05;27.88;;;;;;;11.52;82.16;103031.97;10150578;28;20078;-67
2022/03/23 21:06:18;;;;;;;47.53;29.30;;;;;;;11.44;83.93;103046.19;10153038;28;20899;-66
2022/03/23 21:11:14;;;;;;;50.25;28.55;;;;;;;11.40;83.22;103039.59;10111324;28;20089;-67
2022/03/23 21:16:12;;;;;;;49.08;29.75;;;;;;;11.26;86.57;103041.19;10110600;28;20620;-66
2022/03/23 21:21:10;;;;;;;50.88;29.55;;;;;;;11.20;85.51;103034.00;10150699;28;20385;-67
2022/03/23 21:26:07;;;;;;;49.33;29.42;;;;;;;11.07;87.85;103038.88;10148331;28;20575;-67
2022/03/23 21:31:03;;;;;;;49.28;30.35;;;;;;;10.98;87.46;103031.41;10150460;28;20042;-67
2022/03/23 21:36:00;;;;;;;53.08;30.48;;;;;;;10.90;87.81;103036.28;10148453;28;20080;-67
2022/03/23 21:40:56;;;;;;;51.45;31.77;;;;;;;10.77;91.57;103030.44;10131274;28;20035;-67
2022/03/23 21:45:53;;;;;;;52.50;31.35;;;;;;;10.64;90.66;103032.53;10137438;28;20142;-67
2022/03/23 21:50:50;;;;;;;53.92;32.45;;;;;;;10.52;92.11;103030.00;10127217;28;20053;-67
2022/03/23 21:55:47;;;;;;;50.45;30.88;;;;;;;10.50;91.01;103032.16;10130708;28;20258;-67
2022/03/23 22:00:44;;;;;;;51.05;31.27;;;;;;;10.42;93.04;103032.66;10148284;28;20073;-67
2022/03/23 22:05:41;;;;;;;53.00;31.80;;;;;;;10.35;94.63;103036.66;10148101;28;20046;-67
2022/03/23 22:10:38;;;;;;;52.90;31.90;;;;;;;10.16;95.93;103031.53;10112928;28;20046;-66
2022/03/23 22:15:34;;;;;;;49.85;32.55;;;;;;;10.08;95.63;103023.81;10128287;28;20050;-67
2022/03/23 22:20:31;;;;;;;47.83;29.35;;;;;;;10.01;96.17;103031.41;10149584;28;20050;-67
2022/03/23 22:25:27;;;;;;;56.20;32.25;;;;;;;9.85;97.72;103031.22;10154281;28;20100;-67
2022/03/23 22:30:24;;;;;;;50.70;30.50;;;;;;;9.81;97.69;103029.25;10157052;28;20047;-67
2022/03/23 22:35:20;;;;;;;48.17;30.13;;;;;;;9.75;97.79;103031.13;10155226;28;20480;-67
2022/03/23 22:40:17;;;;;;;53.22;31.05;;;;;;;9.67;97.75;103023.38;10156254;28;20054;-67
2022/03/23 22:45:15;;;;;;;52.47;30.85;;;;;;;9.55;99.04;103022.69;10155889;28;20046;-67
2022/03/23 22:50:13;;;;;;;51.35;31.60;;;;;;;9.44;100.00;103021.72;10131176;28;20560;-66
2022/03/23 22:55:12;;;;;;;55.95;31.58;;;;;;;9.32;100.00;103015.56;10132211;28;20094;-67
2022/03/23 23:00:21;;;;;;;55.25;31.13;;;;;;;9.31;100.00;103025.66;10155344;28;20910;-67